createdAt,value
2018-04-16T00:00:05.367Z,96.20
2018-04-16T00:01:09.382Z,96.40
2018-04-16T00:02:13.372Z,96.50
2018-04-16T00:03:17.357Z,96.60
2018-04-16T00:04:20.572Z,96.50
2018-04-16T00:05:23.866Z,96.60
2018-04-16T00:06:27.196Z,96.60
2018-04-16T00:07:30.400Z,96.60
2018-04-16T00:08:34.404Z,96.80
2018-04-16T00:09:38.389Z,96.80
2018-04-16T00:10:42.416Z,96.80
2018-04-16T00:11:46.430Z,97.00
2018-04-16T00:12:49.691Z,97.00
2018-04-16T00:13:53.671Z,97.20
2018-04-16T00:14:56.941Z,97.20
2018-04-16T00:16:00.154Z,97.10
2018-04-16T00:17:04.135Z,97.00
2018-04-16T00:18:07.375Z,97.00
2018-04-16T00:19:10.613Z,97.00
2018-04-16T00:20:15.332Z,97.00
2018-04-16T00:21:20.063Z,96.90
2018-04-16T00:22:24.047Z,96.90
2018-04-16T00:23:27.279Z,96.90
2018-04-16T00:24:30.503Z,96.90
2018-04-16T00:25:33.731Z,96.90
2018-04-16T00:26:36.954Z,96.90
2018-04-16T00:27:40.188Z,97.20
2018-04-16T00:28:43.415Z,96.90
2018-04-16T00:29:46.671Z,96.70
2018-04-16T00:30:49.899Z,96.80
2018-04-16T00:31:58.894Z,96.90
2018-04-16T00:33:07.892Z,96.90
2018-04-16T00:34:16.712Z,97.00
2018-04-16T00:35:25.708Z,97.10
2018-04-16T00:36:34.581Z,97.00
2018-04-16T00:37:43.627Z,97.10
2018-04-16T00:38:53.313Z,96.90
2018-04-16T00:40:02.178Z,96.80
2018-04-16T00:41:11.776Z,97.30
2018-04-16T00:42:20.622Z,97.00
2018-04-16T00:43:30.241Z,97.20
2018-04-16T00:44:39.873Z,97.20
2018-04-16T00:46:00.933Z,97.20
2018-04-16T00:47:09.843Z,97.30
2018-04-16T00:48:18.779Z,97.30
2018-04-16T00:49:27.723Z,97.30
2018-04-16T00:50:37.582Z,97.30
2018-04-16T00:51:46.534Z,97.30
2018-04-16T00:52:55.467Z,97.40
2018-04-16T00:54:16.587Z,97.50
2018-04-16T00:55:25.507Z,97.40
2018-04-16T00:56:34.506Z,97.50
2018-04-16T00:57:43.535Z,97.60
2018-04-16T00:58:52.479Z,97.90
2018-04-16T01:00:02.316Z,98.00
2018-04-16T01:01:11.979Z,98.20
2018-04-16T01:02:20.868Z,98.20
2018-04-16T01:03:29.915Z,98.10
2018-04-16T01:04:38.784Z,98.10
2018-04-16T01:05:47.680Z,98.50
2018-04-16T01:06:56.602Z,98.70
2018-04-16T01:08:20.563Z,98.80
2018-04-16T01:09:29.506Z,99.00
2018-04-16T01:10:38.471Z,99.00
2018-04-16T01:11:47.381Z,99.00
2018-04-16T01:12:56.333Z,99.20
2018-04-16T01:14:05.348Z,99.20
2018-04-16T01:15:14.262Z,99.30
2018-04-16T01:16:23.179Z,99.20
2018-04-16T01:17:32.104Z,99.20
2018-04-16T01:18:40.929Z,99.10
2018-04-16T01:19:49.799Z,99.30
2018-04-16T01:20:58.667Z,99.40
2018-04-16T01:22:07.579Z,99.60
2018-04-16T01:23:17.416Z,99.70
2018-04-16T01:24:26.244Z,99.70
2018-04-16T01:25:35.918Z,99.70
2018-04-16T01:26:44.864Z,99.70
2018-04-16T01:27:53.755Z,99.70
2018-04-16T01:29:02.576Z,99.70
2018-04-16T01:30:11.429Z,99.50
2018-04-16T01:31:21.029Z,99.50
2018-04-16T01:32:29.945Z,99.50
2018-04-16T01:33:38.862Z,99.50
2018-04-16T01:34:47.759Z,99.50
2018-04-16T01:35:56.773Z,99.60
2018-04-16T01:37:05.766Z,99.20
2018-04-16T01:38:14.752Z,99.40
2018-04-16T01:39:23.649Z,99.40
2018-04-16T01:40:32.569Z,99.60
2018-04-16T01:41:41.476Z,99.70
2018-04-16T01:42:50.447Z,99.70
2018-04-16T01:44:00.172Z,99.60
2018-04-16T01:45:09.788Z,99.60
2018-04-16T01:46:18.602Z,99.60
2018-04-16T01:47:27.462Z,99.80
2018-04-16T01:48:36.323Z,99.90
2018-04-16T01:49:45.164Z,99.90
2018-04-16T01:50:55.002Z,99.90
2018-04-16T01:52:04.690Z,99.90
2018-04-16T01:53:13.603Z,99.70
2018-04-16T01:54:22.474Z,99.90
2018-04-16T01:55:32.094Z,99.90
2018-04-16T01:56:41.067Z,99.90
2018-04-16T01:57:49.957Z,99.90
2018-04-16T01:58:58.942Z,99.90
2018-04-16T02:00:08.504Z,99.70
2018-04-16T02:01:17.304Z,99.70
2018-04-16T02:02:26.235Z,99.80
2018-04-16T02:03:35.103Z,99.90
2018-04-16T02:04:44.027Z,99.90
2018-04-16T02:05:53.020Z,99.70
2018-04-16T02:07:01.796Z,99.50
2018-04-16T02:08:10.744Z,99.80
2018-04-16T02:09:19.578Z,99.70
2018-04-16T02:10:28.392Z,99.70
2018-04-16T02:11:37.435Z,99.60
2018-04-16T02:12:47.123Z,99.60
2018-04-16T02:13:56.015Z,99.60
2018-04-16T02:15:04.985Z,99.60
2018-04-16T02:16:13.867Z,99.60
2018-04-16T02:17:22.773Z,99.50
2018-04-16T02:18:31.633Z,99.60
2018-04-16T02:19:40.571Z,99.90
2018-04-16T02:20:49.418Z,99.90
2018-04-16T02:21:58.334Z,99.70
2018-04-16T02:23:07.162Z,99.90
2018-04-16T02:24:15.986Z,99.90
2018-04-16T02:25:24.857Z,99.90
2018-04-16T02:26:33.711Z,99.90
2018-04-16T02:27:42.606Z,99.90
2018-04-16T02:28:51.496Z,99.90
2018-04-16T02:30:01.107Z,99.90
2018-04-16T02:31:09.898Z,99.90
2018-04-16T02:32:18.795Z,99.90
2018-04-16T02:33:27.639Z,99.90
2018-04-16T02:34:36.500Z,99.90
2018-04-16T02:35:45.320Z,99.90
2018-04-16T02:36:54.142Z,99.90
2018-04-16T02:38:03.092Z,99.90
2018-04-16T02:39:11.888Z,99.90
2018-04-16T02:40:20.812Z,99.90
2018-04-16T02:41:29.743Z,99.90
2018-04-16T02:42:39.344Z,99.90
2018-04-16T02:43:48.228Z,99.90
2018-04-16T02:44:57.214Z,99.90
2018-04-16T02:46:06.825Z,99.90
2018-04-16T02:47:15.841Z,99.90
2018-04-16T02:48:24.695Z,99.90
2018-04-16T02:49:34.342Z,99.90
2018-04-16T02:50:44.003Z,99.90
2018-04-16T02:51:53.205Z,99.90
2018-04-16T02:53:02.939Z,99.90
2018-04-16T02:54:12.000Z,99.90
2018-04-16T02:55:20.800Z,99.90
2018-04-16T02:56:29.644Z,99.90
2018-04-16T02:57:38.686Z,99.90
2018-04-16T02:58:48.517Z,99.90
2018-04-16T02:59:58.133Z,99.90
2018-04-16T03:01:07.724Z,99.90
2018-04-16T03:02:16.608Z,99.90
2018-04-16T03:03:25.504Z,99.90
2018-04-16T03:04:34.302Z,99.90
2018-04-16T03:05:43.239Z,99.90
2018-04-16T03:06:52.776Z,99.90
2018-04-16T03:08:02.406Z,99.90
2018-04-16T03:09:12.260Z,99.90
2018-04-16T03:10:21.155Z,99.90
2018-04-16T03:11:30.179Z,99.90
2018-04-16T03:12:39.021Z,99.90
2018-04-16T03:13:47.994Z,99.90
2018-04-16T03:14:56.979Z,99.90
2018-04-16T03:16:05.775Z,99.90
2018-04-16T03:17:15.364Z,99.90
2018-04-16T03:18:24.214Z,99.90
2018-04-16T03:19:33.138Z,99.90
2018-04-16T03:20:42.095Z,99.90
2018-04-16T03:21:50.941Z,99.90
2018-04-16T03:23:10.855Z,99.90
2018-04-16T03:24:20.511Z,99.90
2018-04-16T03:25:29.584Z,99.90
2018-04-16T03:26:38.358Z,99.90
2018-04-16T03:27:47.204Z,99.90
2018-04-16T03:28:56.024Z,99.90
2018-04-16T03:30:04.885Z,99.90
2018-04-16T03:31:13.752Z,99.90
2018-04-16T03:32:22.724Z,99.90
2018-04-16T03:33:31.737Z,99.90
2018-04-16T03:34:40.570Z,99.90
2018-04-16T03:35:49.478Z,99.90
2018-04-16T03:36:58.475Z,99.90
2018-04-16T03:38:08.153Z,99.90
2018-04-16T03:39:17.154Z,99.90
2018-04-16T03:40:26.002Z,99.90
2018-04-16T03:41:34.915Z,99.90
2018-04-16T03:42:43.722Z,99.90
2018-04-16T03:43:52.763Z,99.90
2018-04-16T03:45:01.696Z,99.90
2018-04-16T03:46:11.340Z,99.90
2018-04-16T03:47:21.104Z,99.90
2018-04-16T03:48:29.946Z,99.90
2018-04-16T03:49:38.831Z,99.90
2018-04-16T03:50:47.773Z,99.90
2018-04-16T03:51:56.676Z,99.90
2018-04-16T03:53:05.559Z,99.90
2018-04-16T03:54:08.777Z,99.90
2018-04-16T03:55:13.842Z,99.90
2018-04-16T03:56:17.008Z,99.90
2018-04-16T03:57:20.239Z,99.90
2018-04-16T03:58:23.463Z,99.90
2018-04-16T03:59:26.692Z,99.90
2018-04-16T04:00:29.906Z,99.90
2018-04-16T04:02:40.945Z,99.90
2018-04-16T04:03:44.922Z,99.90
2018-04-16T04:04:48.902Z,99.90
2018-04-16T04:05:52.118Z,99.90
2018-04-16T04:06:55.333Z,99.90
2018-04-16T04:07:58.596Z,99.90
2018-04-16T04:09:02.568Z,99.90
2018-04-16T04:10:05.775Z,99.90
2018-04-16T04:11:09.005Z,99.90
2018-04-16T04:12:12.974Z,99.90
2018-04-16T04:13:16.238Z,99.90
2018-04-16T04:14:19.422Z,99.90
2018-04-16T04:15:22.643Z,99.90
2018-04-16T04:16:26.632Z,99.90
2018-04-16T04:17:30.668Z,99.90
2018-04-16T04:18:33.867Z,99.90
2018-04-16T04:19:37.087Z,99.90
2018-04-16T04:20:40.298Z,99.90
2018-04-16T04:21:44.265Z,99.90
2018-04-16T04:22:59.471Z,99.90
2018-04-16T04:24:14.597Z,99.90
2018-04-16T04:25:29.603Z,99.90
2018-04-16T04:26:44.759Z,99.90
2018-04-16T04:28:13.692Z,99.90
2018-04-16T04:29:28.692Z,99.90
2018-04-16T04:30:39.585Z,99.90
2018-04-16T04:31:42.785Z,99.90
2018-04-16T04:32:46.077Z,99.90
2018-04-16T04:33:49.372Z,99.90
2018-04-16T04:34:52.577Z,99.90
2018-04-16T04:35:56.579Z,99.90
2018-04-16T04:37:00.557Z,99.90
2018-04-16T04:38:05.290Z,99.90
2018-04-16T04:39:08.626Z,99.90
2018-04-16T04:40:12.022Z,99.90
2018-04-16T04:41:15.293Z,99.90
2018-04-16T04:42:18.514Z,99.90
2018-04-16T04:43:21.733Z,99.90
2018-04-16T04:44:24.961Z,99.90
2018-04-16T04:45:28.171Z,99.90
2018-04-16T04:46:31.412Z,99.90
2018-04-16T04:47:34.683Z,99.90
2018-04-16T04:48:38.637Z,99.90
2018-04-16T04:49:41.895Z,99.90
2018-04-16T04:50:45.074Z,99.90
2018-04-16T04:51:48.292Z,99.90
2018-04-16T04:52:52.266Z,99.90
2018-04-16T04:53:55.484Z,99.90
2018-04-16T04:54:59.492Z,99.90
2018-04-16T04:56:03.500Z,99.90
2018-04-16T04:57:07.443Z,99.90
2018-04-16T04:58:10.673Z,99.90
2018-04-16T04:59:14.667Z,99.90
2018-04-16T05:00:17.854Z,99.90
2018-04-16T05:01:21.849Z,99.90
2018-04-16T05:02:25.849Z,99.90
2018-04-16T05:03:29.829Z,99.90
2018-04-16T05:04:33.829Z,99.90
2018-04-16T05:05:37.023Z,99.90
2018-04-16T05:06:41.020Z,99.90
2018-04-16T05:07:44.324Z,99.90
2018-04-16T05:08:47.542Z,99.90
2018-04-16T05:09:50.756Z,99.90
2018-04-16T05:10:53.980Z,99.90
2018-04-16T05:11:57.182Z,99.90
2018-04-16T05:13:00.439Z,99.90
2018-04-16T05:14:04.417Z,99.90
2018-04-16T05:15:07.624Z,99.90
2018-04-16T05:16:10.895Z,99.90
2018-04-16T05:17:14.895Z,99.90
2018-04-16T05:18:18.889Z,99.90
2018-04-16T05:19:22.884Z,99.90
2018-04-16T05:20:26.872Z,99.90
2018-04-16T05:21:31.604Z,99.90
2018-04-16T05:22:35.583Z,99.90
2018-04-16T05:23:38.870Z,99.90
2018-04-16T05:24:42.808Z,99.90
2018-04-16T05:25:46.791Z,99.90
2018-04-16T05:26:50.767Z,99.90
2018-04-16T05:27:53.980Z,99.90
2018-04-16T05:28:57.990Z,99.90
2018-04-16T05:30:01.214Z,99.90
2018-04-16T05:31:04.431Z,99.90
2018-04-16T05:32:07.644Z,99.90
2018-04-16T05:33:10.855Z,99.90
2018-04-16T05:34:14.083Z,99.90
2018-04-16T05:35:17.293Z,99.90
2018-04-16T05:36:20.518Z,99.90
2018-04-16T05:37:23.761Z,99.90
2018-04-16T05:38:27.703Z,99.90
2018-04-16T05:39:30.931Z,99.90
2018-04-16T05:40:34.912Z,99.90
2018-04-16T05:41:38.203Z,99.90
2018-04-16T05:42:42.177Z,99.90
2018-04-16T05:43:45.384Z,99.90
2018-04-16T05:44:49.462Z,99.90
2018-04-16T05:45:52.683Z,99.90
2018-04-16T05:46:56.669Z,99.90
2018-04-16T05:48:00.685Z,99.90
2018-04-16T05:49:04.691Z,99.90
2018-04-16T05:50:07.916Z,99.90
2018-04-16T05:51:11.153Z,99.90
2018-04-16T05:52:15.118Z,99.90
2018-04-16T05:53:18.448Z,99.90
2018-04-16T05:54:21.665Z,99.90
2018-04-16T05:55:24.901Z,99.90
2018-04-16T05:56:28.894Z,99.90
2018-04-16T05:57:32.884Z,99.90
2018-04-16T05:58:36.900Z,99.90
2018-04-16T05:59:41.007Z,99.90
2018-04-16T06:00:44.220Z,99.90
2018-04-16T06:01:47.512Z,99.90
2018-04-16T06:02:50.743Z,99.90
2018-04-16T06:03:54.735Z,99.90
2018-04-16T06:04:58.813Z,99.90
2018-04-16T06:06:02.085Z,99.90
2018-04-16T06:07:05.333Z,99.90
2018-04-16T06:08:08.537Z,99.90
2018-04-16T06:09:11.772Z,99.90
2018-04-16T06:10:15.774Z,99.90
2018-04-16T06:11:19.788Z,99.90
2018-04-16T06:12:22.984Z,99.90
2018-04-16T06:13:26.199Z,99.90
2018-04-16T06:14:29.410Z,99.90
2018-04-16T06:15:32.631Z,99.90
2018-04-16T06:16:35.842Z,99.90
2018-04-16T06:17:39.072Z,99.90
2018-04-16T06:18:43.065Z,99.90
2018-04-16T06:19:46.297Z,99.90
2018-04-16T06:20:49.521Z,99.90
2018-04-16T06:21:53.508Z,99.90
2018-04-16T06:22:56.732Z,99.90
2018-04-16T06:24:00.735Z,99.90
2018-04-16T06:25:03.948Z,99.90
2018-04-16T06:26:07.179Z,99.90
2018-04-16T06:27:10.417Z,99.90
2018-04-16T06:28:13.636Z,99.90
2018-04-16T06:29:16.839Z,99.90
2018-04-16T06:30:20.850Z,99.90
2018-04-16T06:31:24.064Z,99.90
2018-04-16T06:32:27.279Z,99.90
2018-04-16T06:33:31.275Z,99.90
2018-04-16T06:34:34.520Z,99.90
2018-04-16T06:35:38.483Z,99.90
2018-04-16T06:36:42.491Z,99.90
2018-04-16T06:37:46.470Z,99.90
2018-04-16T06:38:52.370Z,99.90
2018-04-16T06:39:55.670Z,99.90
2018-04-16T06:40:58.915Z,99.90
2018-04-16T06:42:02.158Z,99.90
2018-04-16T06:43:05.396Z,99.90
2018-04-16T06:44:08.661Z,99.90
2018-04-16T06:45:11.877Z,99.90
2018-04-16T06:46:15.110Z,99.90
2018-04-16T06:47:19.106Z,99.90
2018-04-16T06:48:23.097Z,99.90
2018-04-16T06:49:27.101Z,99.90
2018-04-16T06:50:30.321Z,99.90
2018-04-16T06:51:33.606Z,99.90
2018-04-16T06:52:36.831Z,99.90
2018-04-16T06:53:40.088Z,99.90
2018-04-16T06:54:43.368Z,99.90
2018-04-16T06:55:46.587Z,99.90
2018-04-16T06:56:50.569Z,99.90
2018-04-16T06:57:53.786Z,99.90
2018-04-16T06:58:57.839Z,99.90
2018-04-16T07:00:01.804Z,99.90
2018-04-16T07:01:05.778Z,99.90
2018-04-16T07:02:09.004Z,99.90
2018-04-16T07:03:12.228Z,99.90
2018-04-16T07:04:15.448Z,99.90
2018-04-16T07:05:19.470Z,99.90
2018-04-16T07:06:23.438Z,99.90
2018-04-16T07:07:27.647Z,99.90
2018-04-16T07:08:32.414Z,99.90
2018-04-16T07:09:35.697Z,99.90
2018-04-16T07:10:38.913Z,99.90
2018-04-16T07:11:42.139Z,99.90
2018-04-16T07:12:45.408Z,99.90
2018-04-16T07:13:49.459Z,99.90
2018-04-16T07:14:52.661Z,99.90
2018-04-16T07:15:55.952Z,99.90
2018-04-16T07:16:59.137Z,99.90
2018-04-16T07:18:02.403Z,99.90
2018-04-16T07:19:05.611Z,99.90
2018-04-16T07:20:08.855Z,99.90
2018-04-16T07:21:12.091Z,99.90
2018-04-16T07:22:16.116Z,99.90
2018-04-16T07:23:20.103Z,99.90
2018-04-16T07:24:23.332Z,99.90
2018-04-16T07:25:26.575Z,99.90
2018-04-16T07:26:29.779Z,99.90
2018-04-16T07:27:33.032Z,99.90
2018-04-16T07:28:36.325Z,99.90
2018-04-16T07:29:39.540Z,99.90
2018-04-16T07:30:42.780Z,99.90
2018-04-16T07:31:46.039Z,99.90
2018-04-16T07:32:49.228Z,99.90
2018-04-16T07:33:52.458Z,99.90
2018-04-16T07:34:55.667Z,99.90
2018-04-16T07:36:00.419Z,99.90
2018-04-16T07:37:04.394Z,99.90
2018-04-16T07:38:08.378Z,99.90
2018-04-16T07:39:11.634Z,99.90
2018-04-16T07:40:14.855Z,99.90
2018-04-16T07:41:18.111Z,99.90
2018-04-16T07:42:21.345Z,99.90
2018-04-16T07:43:25.314Z,99.90
2018-04-16T07:44:28.544Z,99.90
2018-04-16T07:45:31.811Z,99.90
2018-04-16T07:46:35.806Z,99.90
2018-04-16T07:47:39.802Z,99.90
2018-04-16T07:48:43.013Z,99.90
2018-04-16T07:49:46.238Z,99.90
2018-04-16T07:50:49.485Z,99.90
2018-04-16T07:51:52.699Z,99.90
2018-04-16T07:52:55.924Z,99.90
2018-04-16T07:54:00.162Z,99.90
2018-04-16T07:55:03.387Z,99.90
2018-04-16T07:56:06.727Z,99.90
2018-04-16T07:57:10.695Z,99.90
2018-04-16T07:58:14.715Z,99.90
2018-04-16T07:59:17.919Z,99.90
2018-04-16T08:00:21.143Z,99.90
2018-04-16T08:01:24.405Z,99.90
2018-04-16T08:02:27.600Z,99.90
2018-04-16T08:03:30.823Z,99.90
2018-04-16T08:04:34.047Z,99.90
2018-04-16T08:05:37.302Z,99.90
2018-04-16T08:06:40.610Z,99.90
2018-04-16T08:07:44.551Z,99.90
2018-04-16T08:08:48.542Z,99.90
2018-04-16T08:09:52.528Z,99.90
2018-04-16T08:10:56.456Z,99.90
2018-04-16T08:12:00.455Z,99.90
2018-04-16T08:13:04.438Z,99.90
2018-04-16T08:14:08.414Z,99.90
2018-04-16T08:15:11.642Z,99.90
2018-04-16T08:16:15.631Z,99.90
2018-04-16T08:17:18.891Z,99.90
2018-04-16T08:18:22.127Z,99.90
2018-04-16T08:19:25.374Z,99.90
2018-04-16T08:20:28.694Z,99.90
2018-04-16T08:21:31.925Z,99.90
2018-04-16T08:22:35.139Z,99.90
2018-04-16T08:23:39.137Z,99.90
2018-04-16T08:24:43.132Z,99.90
2018-04-16T08:25:46.369Z,99.90
2018-04-16T08:26:49.613Z,99.90
2018-04-16T08:27:53.592Z,99.90
2018-04-16T08:28:56.806Z,99.90
2018-04-16T08:30:00.798Z,99.90
2018-04-16T08:31:04.779Z,99.90
2018-04-16T08:32:09.516Z,99.90
2018-04-16T08:33:13.533Z,99.90
2018-04-16T08:34:17.495Z,99.90
2018-04-16T08:35:20.719Z,99.90
2018-04-16T08:36:23.951Z,99.90
2018-04-16T08:37:27.182Z,99.90
2018-04-16T08:38:30.419Z,99.90
2018-04-16T08:39:33.647Z,99.90
2018-04-16T08:40:37.651Z,99.90
2018-04-16T08:41:41.080Z,99.90
2018-04-16T08:42:44.292Z,99.90
2018-04-16T08:43:48.277Z,99.90
2018-04-16T08:44:51.591Z,99.90
2018-04-16T08:45:54.818Z,99.90
2018-04-16T08:46:58.037Z,99.90
2018-04-16T08:48:02.755Z,99.90
2018-04-16T08:49:05.992Z,99.90
2018-04-16T08:50:09.238Z,99.90
2018-04-16T08:51:12.432Z,99.90
2018-04-16T08:52:15.703Z,99.90
2018-04-16T08:53:19.726Z,99.90
2018-04-16T08:54:22.941Z,99.90
2018-04-16T08:55:26.179Z,99.90
2018-04-16T08:56:30.192Z,99.90
2018-04-16T08:57:33.440Z,99.90
2018-04-16T08:58:37.458Z,99.90
2018-04-16T08:59:40.709Z,99.90
2018-04-16T09:00:43.941Z,99.90
2018-04-16T09:01:47.166Z,99.90
2018-04-16T09:02:50.386Z,99.90
2018-04-16T09:03:54.377Z,99.90
2018-04-16T09:04:57.614Z,99.90
2018-04-16T09:06:00.842Z,99.90
2018-04-16T09:07:04.828Z,99.90
2018-04-16T09:08:08.031Z,99.90
2018-04-16T09:09:12.019Z,99.90
2018-04-16T09:10:16.007Z,99.90
2018-04-16T09:11:19.226Z,99.90
2018-04-16T09:12:23.233Z,99.90
2018-04-16T09:13:26.462Z,99.90
2018-04-16T09:14:29.676Z,99.90
2018-04-16T09:15:33.683Z,99.90
2018-04-16T09:16:36.914Z,99.90
2018-04-16T09:17:40.167Z,99.90
2018-04-16T09:18:44.160Z,99.90
2018-04-16T09:19:48.139Z,99.90
2018-04-16T09:20:52.127Z,99.90
2018-04-16T09:21:55.350Z,99.90
2018-04-16T09:22:58.571Z,99.90
2018-04-16T09:24:01.796Z,99.90
2018-04-16T09:25:05.795Z,99.90
2018-04-16T09:26:09.817Z,99.90
2018-04-16T09:27:13.030Z,99.90
2018-04-16T09:28:16.288Z,99.90
2018-04-16T09:29:19.499Z,99.90
2018-04-16T09:30:22.728Z,99.90
2018-04-16T09:31:26.721Z,99.90
2018-04-16T09:32:30.122Z,99.90
2018-04-16T09:33:34.093Z,99.90
2018-04-16T09:34:37.324Z,99.90
2018-04-16T09:35:40.539Z,99.90
2018-04-16T09:36:43.802Z,99.90
2018-04-16T09:37:47.016Z,99.90
2018-04-16T09:38:50.301Z,99.90
2018-04-16T09:39:53.539Z,99.90
2018-04-16T09:40:56.751Z,99.90
2018-04-16T09:42:00.001Z,99.90
2018-04-16T09:43:03.956Z,99.90
2018-04-16T09:44:07.267Z,99.90
2018-04-16T09:45:10.600Z,99.90
2018-04-16T09:46:13.825Z,99.90
2018-04-16T09:47:17.862Z,99.90
2018-04-16T09:48:22.043Z,99.90
2018-04-16T09:49:26.040Z,99.90
2018-04-16T09:50:30.069Z,99.90
2018-04-16T09:51:34.027Z,99.90
2018-04-16T09:52:38.015Z,99.90
2018-04-16T09:53:41.245Z,99.90
2018-04-16T09:54:44.478Z,99.90
2018-04-16T09:55:47.707Z,99.90
2018-04-16T09:56:51.702Z,99.90
2018-04-16T09:57:55.726Z,99.90
2018-04-16T09:58:58.940Z,99.90
2018-04-16T10:00:02.146Z,99.90
2018-04-16T10:01:11.863Z,99.90
2018-04-16T10:02:20.714Z,99.90
2018-04-16T10:03:24.725Z,99.90
2018-04-16T10:04:27.943Z,99.90
2018-04-16T10:05:31.170Z,99.90
2018-04-16T10:06:35.220Z,99.90
2018-04-16T10:07:38.419Z,99.90
2018-04-16T10:08:41.649Z,99.90
2018-04-16T10:09:44.886Z,99.90
2018-04-16T10:10:48.260Z,99.90
2018-04-16T10:11:51.467Z,99.90
2018-04-16T10:12:56.209Z,99.90
2018-04-16T10:14:00.478Z,99.90
2018-04-16T10:15:03.666Z,99.90
2018-04-16T10:16:06.990Z,99.90
2018-04-16T10:17:10.983Z,99.90
2018-04-16T10:18:14.995Z,99.90
2018-04-16T10:19:18.209Z,99.90
2018-04-16T10:20:21.433Z,99.90
2018-04-16T10:21:24.735Z,99.90
2018-04-16T10:22:28.723Z,99.90
2018-04-16T10:23:32.718Z,99.90
2018-04-16T10:24:36.029Z,99.90
2018-04-16T10:25:39.270Z,99.90
2018-04-16T10:26:43.997Z,99.90
2018-04-16T10:27:48.747Z,99.90
2018-04-16T10:28:52.733Z,99.90
2018-04-16T10:29:56.724Z,99.90
2018-04-16T10:31:00.728Z,99.90
2018-04-16T10:32:05.604Z,99.90
2018-04-16T10:33:08.827Z,99.90
2018-04-16T10:34:12.084Z,99.90
2018-04-16T10:35:15.283Z,99.90
2018-04-16T10:36:18.503Z,99.90
2018-04-16T10:37:21.718Z,99.90
2018-04-16T10:38:24.947Z,99.90
2018-04-16T10:39:28.941Z,99.90
2018-04-16T10:40:32.181Z,99.90
2018-04-16T10:41:35.406Z,99.90
2018-04-16T10:42:38.631Z,99.90
2018-04-16T10:43:41.849Z,99.90
2018-04-16T10:44:45.290Z,99.90
2018-04-16T10:45:48.603Z,99.90
2018-04-16T10:46:51.816Z,99.90
2018-04-16T10:47:56.563Z,99.90
2018-04-16T10:49:00.539Z,99.90
2018-04-16T10:50:03.814Z,99.90
2018-04-16T10:51:07.040Z,99.90
2018-04-16T10:52:10.275Z,99.90
2018-04-16T10:53:13.494Z,99.90
2018-04-16T10:54:17.517Z,99.90
2018-04-16T10:55:21.509Z,99.90
2018-04-16T10:56:24.844Z,99.90
2018-04-16T10:57:28.026Z,99.90
2018-04-16T10:58:31.267Z,99.90
2018-04-16T10:59:34.484Z,99.90
2018-04-16T11:00:37.720Z,99.90
2018-04-16T11:01:40.950Z,99.90
2018-04-16T11:02:44.167Z,99.90
2018-04-16T11:03:48.171Z,99.90
2018-04-16T11:04:51.378Z,99.90
2018-04-16T11:05:54.586Z,99.90
2018-04-16T11:06:57.815Z,99.90
2018-04-16T11:08:01.032Z,99.90
2018-04-16T11:09:04.272Z,99.90
2018-04-16T11:10:07.515Z,99.90
2018-04-16T11:11:10.731Z,99.90
2018-04-16T11:12:13.946Z,99.90
2018-04-16T11:13:17.193Z,99.90
2018-04-16T11:14:21.176Z,99.90
2018-04-16T11:15:24.395Z,99.90
2018-04-16T11:16:28.394Z,99.90
2018-04-16T11:17:31.604Z,99.90
2018-04-16T11:18:34.879Z,99.90
2018-04-16T11:19:38.839Z,99.90
2018-04-16T11:20:42.830Z,99.90
2018-04-16T11:21:46.084Z,99.90
2018-04-16T11:22:49.313Z,99.90
2018-04-16T11:23:52.546Z,99.90
2018-04-16T11:24:55.800Z,99.90
2018-04-16T11:25:59.768Z,99.90
2018-04-16T11:27:02.989Z,99.90
2018-04-16T11:28:06.990Z,99.90
2018-04-16T11:29:10.969Z,99.90
2018-04-16T11:30:14.987Z,99.90
2018-04-16T11:31:18.177Z,99.90
2018-04-16T11:32:21.456Z,99.90
2018-04-16T11:33:24.642Z,99.90
2018-04-16T11:34:27.890Z,99.90
2018-04-16T11:35:31.109Z,99.90
2018-04-16T11:36:34.338Z,99.90
2018-04-16T11:37:37.552Z,99.90
2018-04-16T11:38:41.586Z,99.90
2018-04-16T11:39:44.833Z,99.90
2018-04-16T11:40:48.094Z,99.90
2018-04-16T11:41:51.372Z,99.90
2018-04-16T11:42:54.671Z,99.90
2018-04-16T11:43:57.890Z,99.90
2018-04-16T11:45:01.865Z,99.90
2018-04-16T11:46:05.085Z,99.90
2018-04-16T11:47:08.317Z,99.90
2018-04-16T11:48:11.520Z,99.90
2018-04-16T11:49:15.551Z,99.90
2018-04-16T11:50:18.788Z,99.90
2018-04-16T11:51:22.804Z,99.90
2018-04-16T11:52:26.792Z,99.90
2018-04-16T11:53:30.046Z,99.90
2018-04-16T11:54:33.269Z,99.90
2018-04-16T11:55:37.283Z,99.90
2018-04-16T11:56:41.289Z,99.90
2018-04-16T11:57:45.296Z,99.90
2018-04-16T11:58:48.526Z,99.90
2018-04-16T11:59:51.767Z,99.90
2018-04-16T12:00:55.025Z,99.90
2018-04-16T12:01:58.638Z,99.90
2018-04-16T12:03:01.876Z,99.90
2018-04-16T12:04:05.102Z,99.90
2018-04-16T12:05:09.078Z,99.90
2018-04-16T12:06:13.082Z,99.90
2018-04-16T12:07:17.070Z,99.90
2018-04-16T12:08:20.375Z,99.90
2018-04-16T12:09:24.386Z,99.90
2018-04-16T12:10:28.384Z,99.90
2018-04-16T12:11:32.360Z,99.90
2018-04-16T12:12:35.577Z,99.90
2018-04-16T12:13:38.808Z,99.90
2018-04-16T12:14:42.010Z,99.90
2018-04-16T12:15:46.021Z,99.90
2018-04-16T12:16:50.015Z,99.90
2018-04-16T12:17:53.320Z,99.90
2018-04-16T12:18:56.465Z,99.90
2018-04-16T12:20:00.456Z,99.90
2018-04-16T12:21:03.793Z,99.90
2018-04-16T12:22:07.783Z,99.90
2018-04-16T12:23:11.792Z,99.90
2018-04-16T12:24:15.022Z,99.90
2018-04-16T12:25:18.257Z,99.90
2018-04-16T12:26:21.495Z,99.90
2018-04-16T12:27:24.714Z,99.90
2018-04-16T12:28:28.711Z,99.90
2018-04-16T12:29:32.729Z,99.90
2018-04-16T12:30:36.003Z,99.90
2018-04-16T12:31:39.215Z,99.90
2018-04-16T12:32:42.430Z,99.90
2018-04-16T12:33:45.672Z,99.90
2018-04-16T12:34:49.023Z,99.90
2018-04-16T12:35:53.010Z,99.90
2018-04-16T12:36:56.223Z,99.90
2018-04-16T12:37:59.465Z,99.90
2018-04-16T12:39:02.730Z,99.90
2018-04-16T12:40:05.935Z,99.90
2018-04-16T12:41:09.934Z,99.90
2018-04-16T12:42:13.155Z,99.90
2018-04-16T12:43:16.391Z,99.90
2018-04-16T12:44:19.604Z,99.90
2018-04-16T12:45:23.598Z,99.90
2018-04-16T12:46:27.595Z,99.90
2018-04-16T12:47:31.595Z,99.90
2018-04-16T12:48:34.908Z,99.90
2018-04-16T12:49:38.068Z,99.90
2018-04-16T12:50:42.069Z,99.90
2018-04-16T12:51:46.049Z,99.90
2018-04-16T12:52:50.038Z,99.90
2018-04-16T12:53:53.251Z,99.90
2018-04-16T12:54:57.277Z,99.90
2018-04-16T12:56:00.581Z,99.90
2018-04-16T12:57:03.793Z,99.90
2018-04-16T12:58:07.022Z,99.90
2018-04-16T12:59:10.223Z,99.90
2018-04-16T13:00:13.451Z,99.90
2018-04-16T13:01:16.686Z,99.90
2018-04-16T13:02:19.911Z,99.90
2018-04-16T13:03:23.133Z,99.90
2018-04-16T13:04:26.413Z,99.90
2018-04-16T13:05:29.631Z,99.90
2018-04-16T13:06:32.841Z,99.90
2018-04-16T13:07:36.826Z,99.90
2018-04-16T13:08:40.051Z,99.90
2018-04-16T13:09:44.063Z,99.90
2018-04-16T13:10:48.041Z,99.90
2018-04-16T13:11:52.043Z,99.90
2018-04-16T13:12:56.027Z,99.90
2018-04-16T13:13:59.262Z,99.90
2018-04-16T13:15:02.488Z,99.90
2018-04-16T13:16:05.741Z,99.90
2018-04-16T13:17:09.699Z,99.90
2018-04-16T13:18:13.691Z,99.90
2018-04-16T13:19:18.406Z,99.90
2018-04-16T13:20:22.393Z,99.90
2018-04-16T13:21:25.617Z,99.90
2018-04-16T13:22:28.840Z,99.90
2018-04-16T13:23:32.079Z,99.90
2018-04-16T13:24:36.061Z,99.90
2018-04-16T13:25:40.043Z,99.90
2018-04-16T13:26:43.276Z,99.90
2018-04-16T13:27:46.484Z,99.90
2018-04-16T13:28:49.711Z,99.90
2018-04-16T13:29:53.707Z,99.90
2018-04-16T13:30:56.919Z,99.90
2018-04-16T13:32:00.145Z,99.90
2018-04-16T13:33:03.375Z,99.90
2018-04-16T13:34:07.363Z,99.90
2018-04-16T13:35:11.353Z,99.90
2018-04-16T13:36:15.359Z,99.90
2018-04-16T13:37:19.350Z,99.90
2018-04-16T13:38:23.338Z,99.90
2018-04-16T13:39:26.567Z,99.90
2018-04-16T13:40:29.827Z,99.90
2018-04-16T13:41:33.865Z,99.90
2018-04-16T13:42:37.092Z,99.90
2018-04-16T13:43:40.319Z,99.90
2018-04-16T13:44:44.303Z,99.90
2018-04-16T13:45:48.310Z,99.90
2018-04-16T13:46:52.297Z,99.90
2018-04-16T13:47:56.305Z,99.90
2018-04-16T13:49:00.292Z,99.90
2018-04-16T13:50:04.276Z,99.90
2018-04-16T13:51:07.497Z,99.90
2018-04-16T13:52:10.708Z,99.90
2018-04-16T13:53:13.927Z,99.90
2018-04-16T13:54:18.651Z,99.90
2018-04-16T13:55:21.968Z,99.90
2018-04-16T13:56:25.194Z,99.90
2018-04-16T13:57:28.425Z,99.90